createdAt,value
2017-04-09T00:00:07.395Z,101728.41
2017-04-09T00:01:05.549Z,101733.17
2017-04-09T00:02:03.657Z,101726.24
2017-04-09T00:03:01.508Z,101733.47
2017-04-09T00:03:59.783Z,101725.20
2017-04-09T00:04:57.612Z,101725.67
2017-04-09T00:05:57.405Z,101726.77
2017-04-09T00:06:55.377Z,101726.20
2017-04-09T00:07:53.477Z,101728.09
2017-04-09T00:08:51.981Z,101726.46
2017-04-09T00:09:50.710Z,101722.14
2017-04-09T00:10:48.759Z,101724.70
2017-04-09T00:11:46.575Z,101726.50
2017-04-09T00:12:44.547Z,101714.17
2017-04-09T00:13:42.471Z,101710.64
2017-04-09T00:14:40.377Z,101717.22
2017-04-09T00:15:38.255Z,101718.19
2017-04-09T00:16:36.515Z,101716.56
2017-04-09T00:17:34.722Z,101716.67
2017-04-09T00:18:32.600Z,101718.20
2017-04-09T00:19:30.505Z,101717.46
2017-04-09T00:20:28.408Z,101717.78
2017-04-09T00:21:26.255Z,101712.44
2017-04-09T00:22:24.092Z,101714.47
2017-04-09T00:23:21.951Z,101715.72
2017-04-09T00:24:22.061Z,101717.94
2017-04-09T00:25:20.794Z,101716.88
2017-04-09T00:26:19.863Z,101710.09
2017-04-09T00:27:17.985Z,101713.16
2017-04-09T00:28:15.864Z,101711.97
2017-04-09T00:29:13.771Z,101706.73
2017-04-09T00:30:11.655Z,101712.99
2017-04-09T00:31:10.081Z,101710.80
2017-04-09T00:32:07.937Z,101709.36
2017-04-09T00:33:05.962Z,101711.04
2017-04-09T00:34:05.105Z,101708.61
2017-04-09T00:35:03.656Z,101715.16
2017-04-09T00:36:01.508Z,101711.16
2017-04-09T00:36:59.344Z,101710.53
2017-04-09T00:37:57.184Z,101703.80
2017-04-09T00:38:58.033Z,101707.30
2017-04-09T00:39:58.623Z,101710.23
2017-04-09T00:40:59.225Z,101704.22
2017-04-09T00:41:58.688Z,101712.44
2017-04-09T00:42:56.655Z,101706.23
2017-04-09T00:43:56.998Z,101708.16
2017-04-09T00:44:55.131Z,101707.09
2017-04-09T00:45:54.221Z,101699.05
2017-04-09T00:46:54.328Z,101704.48
2017-04-09T00:47:56.527Z,101705.09
2017-04-09T00:48:54.478Z,101704.60
2017-04-09T00:49:52.302Z,101703.23
2017-04-09T00:50:50.312Z,101708.47
2017-04-09T00:51:48.295Z,101704.84
2017-04-09T00:52:47.229Z,101707.16
2017-04-09T00:53:46.879Z,101711.56
2017-04-09T00:54:44.796Z,101707.95
2017-04-09T00:55:43.017Z,101713.14
2017-04-09T00:56:44.180Z,101703.41
2017-04-09T00:57:43.112Z,101709.44
2017-04-09T00:58:42.030Z,101705.58
2017-04-09T00:59:40.736Z,101703.83
2017-04-09T01:00:50.813Z,101704.30
2017-04-09T01:01:51.200Z,101710.11
2017-04-09T01:02:49.188Z,101701.42
2017-04-09T01:03:47.038Z,101702.59
2017-04-09T01:04:44.948Z,101700.70
2017-04-09T01:05:44.740Z,101701.48
2017-04-09T01:06:42.686Z,101695.56
2017-04-09T01:07:41.376Z,101697.41
2017-04-09T01:08:43.419Z,101700.05
2017-04-09T01:09:41.881Z,101702.66
2017-04-09T01:10:39.992Z,101701.06
2017-04-09T01:11:37.977Z,101698.23
2017-04-09T01:12:35.972Z,101692.20
2017-04-09T01:13:34.534Z,101695.22
2017-04-09T01:14:32.688Z,101702.01
2017-04-09T01:15:31.369Z,101696.14
2017-04-09T01:16:29.436Z,101692.97
2017-04-09T01:17:27.656Z,101696.63
2017-04-09T01:18:25.452Z,101693.08
2017-04-09T01:19:24.669Z,101691.47
2017-04-09T01:20:22.544Z,101689.20
2017-04-09T01:21:20.404Z,101695.40
2017-04-09T01:22:19.158Z,101695.13
2017-04-09T01:23:18.204Z,101693.48
2017-04-09T01:24:17.016Z,101689.41
2017-04-09T01:25:15.850Z,101694.16
2017-04-09T01:26:14.975Z,101684.53
2017-04-09T01:27:12.851Z,101687.36
2017-04-09T01:28:11.028Z,101689.45
2017-04-09T01:29:08.992Z,101688.81
2017-04-09T01:30:06.833Z,101686.28
2017-04-09T01:31:04.779Z,101683.86
2017-04-09T01:32:02.663Z,101685.88
2017-04-09T01:33:00.522Z,101691.44
2017-04-09T01:33:58.415Z,101691.03
2017-04-09T01:34:56.272Z,101690.30
2017-04-09T01:35:54.082Z,101694.22
2017-04-09T01:36:51.974Z,101694.66
2017-04-09T01:37:49.939Z,101692.65
2017-04-09T01:38:47.722Z,101688.59
2017-04-09T01:39:45.653Z,101692.04
2017-04-09T01:40:43.440Z,101691.11
2017-04-09T01:41:41.520Z,101690.16
2017-04-09T01:42:39.374Z,101691.82
2017-04-09T01:43:39.388Z,101692.11
2017-04-09T01:44:37.316Z,101690.39
2017-04-09T01:45:35.152Z,101694.47
2017-04-09T01:46:33.028Z,101693.95
2017-04-09T01:47:30.904Z,101697.27
2017-04-09T01:48:28.788Z,101688.80
2017-04-09T01:49:26.725Z,101690.13
2017-04-09T01:50:24.563Z,101693.78
2017-04-09T01:51:22.406Z,101691.84
2017-04-09T01:52:20.291Z,101690.34
2017-04-09T01:53:18.136Z,101689.55
2017-04-09T01:54:16.147Z,101685.80
2017-04-09T01:55:14.004Z,101683.51
2017-04-09T01:56:11.989Z,101686.12
2017-04-09T01:57:09.782Z,101688.47
2017-04-09T01:58:07.741Z,101685.27
2017-04-09T01:59:05.591Z,101684.23
2017-04-09T02:00:03.528Z,101687.63
2017-04-09T02:01:01.418Z,101690.36
2017-04-09T02:01:59.286Z,101689.34
2017-04-09T02:02:57.092Z,101687.40
2017-04-09T02:03:54.970Z,101684.73
2017-04-09T02:04:52.857Z,101679.39
2017-04-09T02:05:50.792Z,101692.61
2017-04-09T02:06:48.668Z,101686.67
2017-04-09T02:07:46.540Z,101693.08
2017-04-09T02:08:44.365Z,101688.99
2017-04-09T02:09:42.384Z,101690.16
2017-04-09T02:10:40.312Z,101687.63
2017-04-09T02:11:38.212Z,101686.92
2017-04-09T02:12:36.044Z,101690.63
2017-04-09T02:13:33.894Z,101688.59
2017-04-09T02:14:31.812Z,101685.41
2017-04-09T02:15:29.656Z,101685.38
2017-04-09T02:16:27.699Z,101682.25
2017-04-09T02:17:25.544Z,101684.66
2017-04-09T02:18:23.435Z,101685.88
2017-04-09T02:19:21.231Z,101679.48
2017-04-09T02:20:19.097Z,101687.59
2017-04-09T02:21:17.001Z,101679.44
2017-04-09T02:22:14.923Z,101683.09
2017-04-09T02:23:12.787Z,101680.04
2017-04-09T02:24:10.658Z,101675.22
2017-04-09T02:25:08.681Z,101678.34
2017-04-09T02:26:06.567Z,101684.63
2017-04-09T02:27:04.529Z,101681.29
2017-04-09T02:28:02.443Z,101679.02
2017-04-09T02:29:01.848Z,101676.41
2017-04-09T02:30:05.752Z,101673.44
2017-04-09T02:31:04.469Z,101676.21
2017-04-09T02:32:02.365Z,101676.20
2017-04-09T02:33:06.328Z,101678.12
2017-04-09T02:34:10.456Z,101675.02
2017-04-09T02:35:15.037Z,101672.29
2017-04-09T02:36:16.861Z,101674.85
2017-04-09T02:37:15.986Z,101675.83
2017-04-09T02:38:14.620Z,101670.39
2017-04-09T02:39:14.692Z,101676.67
2017-04-09T02:40:12.621Z,101672.85
2017-04-09T02:41:13.878Z,101671.72
2017-04-09T02:42:12.175Z,101671.87
2017-04-09T02:43:10.097Z,101674.93
2017-04-09T02:44:08.300Z,101671.16
2017-04-09T02:45:11.869Z,101669.88
2017-04-09T02:46:09.897Z,101673.87
2017-04-09T02:47:07.761Z,101672.02
2017-04-09T02:48:05.615Z,101675.59
2017-04-09T02:49:03.609Z,101673.55
2017-04-09T02:50:07.472Z,101670.38
2017-04-09T02:51:09.655Z,101667.75
2017-04-09T02:52:13.024Z,101663.77
2017-04-09T02:53:17.602Z,101671.45
2017-04-09T02:54:19.713Z,101664.90
2017-04-09T02:55:17.814Z,101661.70
2017-04-09T02:56:15.673Z,101663.78
2017-04-09T02:57:13.555Z,101658.81
2017-04-09T02:58:11.777Z,101661.27
2017-04-09T02:59:09.639Z,101659.25
2017-04-09T03:00:09.434Z,101657.09
2017-04-09T03:01:09.125Z,101656.50
2017-04-09T03:02:11.118Z,101660.96
2017-04-09T03:03:09.348Z,101660.76
2017-04-09T03:04:07.249Z,101664.92
2017-04-09T03:05:05.147Z,101663.84
2017-04-09T03:06:03.048Z,101664.54
2017-04-09T03:07:00.874Z,101658.61
2017-04-09T03:07:58.759Z,101665.91
2017-04-09T03:08:56.629Z,101667.28
2017-04-09T03:09:54.595Z,101667.20
2017-04-09T03:10:52.479Z,101665.77
2017-04-09T03:11:50.317Z,101664.86
2017-04-09T03:12:48.254Z,101665.39
2017-04-09T03:13:46.050Z,101667.33
2017-04-09T03:14:43.996Z,101665.95
2017-04-09T03:15:41.805Z,101663.73
2017-04-09T03:16:39.796Z,101671.77
2017-04-09T03:17:37.740Z,101669.87
2017-04-09T03:18:35.617Z,101671.85
2017-04-09T03:19:33.538Z,101673.92
2017-04-09T03:20:31.437Z,101665.47
2017-04-09T03:21:29.288Z,101666.72
2017-04-09T03:22:27.116Z,101660.91
2017-04-09T03:23:24.929Z,101660.38
2017-04-09T03:24:22.874Z,101663.79
2017-04-09T03:25:20.690Z,101669.73
2017-04-09T03:26:18.588Z,101669.72
2017-04-09T03:27:16.443Z,101668.63
2017-04-09T03:28:14.294Z,101667.20
2017-04-09T03:29:12.162Z,101663.02
2017-04-09T03:30:10.135Z,101669.19
2017-04-09T03:31:07.999Z,101660.59
2017-04-09T03:32:05.863Z,101662.08
2017-04-09T03:33:03.707Z,101660.34
2017-04-09T03:34:01.550Z,101661.22
2017-04-09T03:34:59.545Z,101662.50
2017-04-09T03:35:59.188Z,101664.83
2017-04-09T03:36:57.022Z,101667.92
2017-04-09T03:37:54.927Z,101663.98
2017-04-09T03:38:52.741Z,101670.95
2017-04-09T03:39:50.559Z,101673.08
2017-04-09T03:40:48.524Z,101671.48
2017-04-09T03:41:46.376Z,101669.41
2017-04-09T03:42:44.207Z,101675.91
2017-04-09T03:43:42.090Z,101681.86
2017-04-09T03:44:39.918Z,101673.37
2017-04-09T03:45:37.827Z,101678.94
2017-04-09T03:46:35.632Z,101679.81
2017-04-09T03:47:33.632Z,101671.82
2017-04-09T03:48:31.489Z,101679.16
2017-04-09T03:49:29.320Z,101669.41
2017-04-09T03:50:27.115Z,101674.02
2017-04-09T03:51:24.988Z,101679.23
2017-04-09T03:52:22.798Z,101670.84
2017-04-09T03:53:20.756Z,101676.58
2017-04-09T03:54:18.648Z,101676.28
2017-04-09T03:55:16.440Z,101675.19
2017-04-09T03:56:14.327Z,101670.80
2017-04-09T03:57:12.143Z,101671.14
2017-04-09T03:58:10.200Z,101671.70
2017-04-09T03:59:08.024Z,101678.51
2017-04-09T04:00:05.989Z,101670.74
2017-04-09T04:01:03.899Z,101672.40
2017-04-09T04:02:01.656Z,101672.28
2017-04-09T04:02:59.547Z,101669.92
2017-04-09T04:03:57.522Z,101671.55
2017-04-09T04:04:55.353Z,101665.64
2017-04-09T04:05:53.196Z,101664.74
2017-04-09T04:06:51.130Z,101663.59
2017-04-09T04:07:50.615Z,101659.88
2017-04-09T04:08:48.436Z,101667.37
2017-04-09T04:09:46.530Z,101667.04
2017-04-09T04:10:44.444Z,101670.29
2017-04-09T04:11:42.292Z,101671.18
2017-04-09T04:12:40.128Z,101669.92
2017-04-09T04:13:37.969Z,101675.28
2017-04-09T04:14:35.849Z,101670.64
2017-04-09T04:15:33.645Z,101668.05
2017-04-09T04:16:31.438Z,101675.00
2017-04-09T04:17:29.312Z,101673.23
2017-04-09T04:18:27.191Z,101673.62
2017-04-09T04:19:25.007Z,101673.95
2017-04-09T04:20:22.920Z,101678.29
2017-04-09T04:21:20.777Z,101669.41
2017-04-09T04:22:18.598Z,101668.02
2017-04-09T04:23:17.949Z,101674.33
2017-04-09T04:24:15.936Z,101675.31
2017-04-09T04:25:13.737Z,101679.84
2017-04-09T04:26:11.683Z,101682.23
2017-04-09T04:27:09.528Z,101676.61
2017-04-09T04:28:07.426Z,101673.87
2017-04-09T04:29:05.278Z,101676.38
2017-04-09T04:30:03.164Z,101675.80
2017-04-09T04:31:01.137Z,101671.52
2017-04-09T04:31:59.004Z,101675.62
2017-04-09T04:32:56.871Z,101674.25
2017-04-09T04:33:54.721Z,101676.72
2017-04-09T04:34:52.548Z,101678.75
2017-04-09T04:35:50.483Z,101676.16
2017-04-09T04:36:48.307Z,101683.19
2017-04-09T04:37:46.307Z,101677.62
2017-04-09T04:38:44.147Z,101673.28
2017-04-09T04:39:42.107Z,101672.22
2017-04-09T04:40:39.946Z,101674.47
2017-04-09T04:41:37.756Z,101675.68
2017-04-09T04:42:35.632Z,101677.20
2017-04-09T04:43:33.474Z,101677.31
2017-04-09T04:44:31.440Z,101683.30
2017-04-09T04:45:29.265Z,101683.86
2017-04-09T04:46:27.271Z,101686.15
2017-04-09T04:47:25.152Z,101683.51
2017-04-09T04:48:22.993Z,101681.94
2017-04-09T04:49:20.911Z,101686.59
2017-04-09T04:50:18.863Z,101676.77
2017-04-09T04:51:16.741Z,101690.05
2017-04-09T04:52:14.560Z,101689.69
2017-04-09T04:53:12.528Z,101682.66
2017-04-09T04:54:10.384Z,101686.94
2017-04-09T04:55:08.207Z,101681.31
2017-04-09T04:56:06.131Z,101688.72
2017-04-09T04:57:03.992Z,101686.84
2017-04-09T04:58:01.924Z,101690.73
2017-04-09T04:58:59.744Z,101697.03
2017-04-09T04:59:57.731Z,101694.87
2017-04-09T05:00:55.596Z,101694.85
2017-04-09T05:01:53.412Z,101694.80
2017-04-09T05:02:51.346Z,101696.17
2017-04-09T05:03:49.135Z,101690.39
2017-04-09T05:04:47.159Z,101699.57
2017-04-09T05:05:45.012Z,101695.24
2017-04-09T05:06:42.955Z,101702.69
2017-04-09T05:07:40.849Z,101699.88
2017-04-09T05:08:38.719Z,101690.66
2017-04-09T05:09:36.583Z,101689.86
2017-04-09T05:10:34.363Z,101686.91
2017-04-09T05:11:32.371Z,101699.52
2017-04-09T05:12:30.218Z,101694.13
2017-04-09T05:13:28.141Z,101694.14
2017-04-09T05:14:26.011Z,101701.38
2017-04-09T05:15:23.836Z,101694.02
2017-04-09T05:16:21.751Z,101696.30
2017-04-09T05:17:19.599Z,101702.99
2017-04-09T05:18:17.513Z,101703.83
2017-04-09T05:19:15.334Z,101704.75
2017-04-09T05:20:13.328Z,101705.16
2017-04-09T05:21:11.187Z,101708.63
2017-04-09T05:22:09.004Z,101699.75
2017-04-09T05:23:06.898Z,101698.11
2017-04-09T05:24:04.743Z,101701.68
2017-04-09T05:25:02.712Z,101704.50
2017-04-09T05:26:00.524Z,101713.86
2017-04-09T05:26:58.543Z,101709.56
2017-04-09T05:27:56.375Z,101713.66
2017-04-09T05:28:54.168Z,101711.70
2017-04-09T05:29:52.148Z,101712.55
2017-04-09T05:30:49.964Z,101718.19
2017-04-09T05:31:47.952Z,101710.97
2017-04-09T05:32:45.776Z,101719.95
2017-04-09T05:33:43.727Z,101717.84
2017-04-09T05:34:41.603Z,101716.06
2017-04-09T05:35:39.423Z,101714.71
2017-04-09T05:36:37.292Z,101715.16
2017-04-09T05:37:35.154Z,101716.86
2017-04-09T05:38:33.090Z,101713.83
2017-04-09T05:39:30.951Z,101714.25
2017-04-09T05:40:28.880Z,101712.44
2017-04-09T05:41:26.759Z,101715.44
2017-04-09T05:42:24.573Z,101714.17
2017-04-09T05:43:22.517Z,101719.48
2017-04-09T05:44:20.357Z,101722.55
2017-04-09T05:45:18.341Z,101716.13
2017-04-09T05:46:16.221Z,101715.98
2017-04-09T05:47:14.137Z,101724.66
2017-04-09T05:48:12.014Z,101717.56
2017-04-09T05:49:09.857Z,101721.35
2017-04-09T05:50:07.739Z,101707.42
2017-04-09T05:51:05.558Z,101715.98
2017-04-09T05:52:03.542Z,101714.37
2017-04-09T05:53:01.405Z,101711.86
2017-04-09T05:53:59.291Z,101719.86
2017-04-09T05:54:57.192Z,101715.81
2017-04-09T05:55:54.991Z,101715.84
2017-04-09T05:56:52.973Z,101709.35
2017-04-09T05:57:51.660Z,101710.73
2017-04-09T05:58:49.639Z,101711.24
2017-04-09T05:59:47.470Z,101706.23
2017-04-09T06:00:45.353Z,101710.09
2017-04-09T06:01:43.216Z,101707.58
2017-04-09T06:02:41.137Z,101710.06
2017-04-09T06:03:38.965Z,101716.66
2017-04-09T06:04:36.785Z,101712.73
2017-04-09T06:05:34.845Z,101711.39
2017-04-09T06:06:32.708Z,101713.39
2017-04-09T06:07:30.522Z,101712.46
2017-04-09T06:08:28.387Z,101711.09
2017-04-09T06:09:26.199Z,101715.77
2017-04-09T06:10:24.372Z,101705.17
2017-04-09T06:11:22.242Z,101710.19
2017-04-09T06:12:20.082Z,101712.28
2017-04-09T06:13:17.929Z,101716.09
2017-04-09T06:14:15.748Z,101706.03
2017-04-09T06:15:13.588Z,101708.48
2017-04-09T06:16:11.436Z,101711.91
2017-04-09T06:17:09.356Z,101705.16
2017-04-09T06:18:07.211Z,101706.27
2017-04-09T06:19:05.128Z,101708.42
2017-04-09T06:20:02.991Z,101715.01
2017-04-09T06:21:00.845Z,101715.41
2017-04-09T06:21:58.742Z,101713.50
2017-04-09T06:22:56.568Z,101716.83
2017-04-09T06:23:54.532Z,101714.56
2017-04-09T06:24:52.392Z,101720.52
2017-04-09T06:25:50.317Z,101715.34
2017-04-09T06:26:48.237Z,101709.53
2017-04-09T06:27:46.088Z,101709.74
2017-04-09T06:28:43.984Z,101710.70
2017-04-09T06:29:41.855Z,101710.30
2017-04-09T06:30:39.815Z,101708.94
2017-04-09T06:31:37.662Z,101708.41
2017-04-09T06:32:35.529Z,101708.28
2017-04-09T06:33:33.400Z,101710.60
2017-04-09T06:34:31.312Z,101708.85
2017-04-09T06:35:29.172Z,101713.48
2017-04-09T06:36:26.976Z,101715.96
2017-04-09T06:37:24.926Z,101720.42
2017-04-09T06:38:22.777Z,101715.41
2017-04-09T06:39:20.772Z,101708.91
2017-04-09T06:40:18.669Z,101718.41
2017-04-09T06:41:16.555Z,101715.83
2017-04-09T06:42:14.399Z,101710.89
2017-04-09T06:43:12.238Z,101714.96
2017-04-09T06:44:10.119Z,101715.23
2017-04-09T06:45:07.967Z,101713.33
2017-04-09T06:46:05.976Z,101709.39
2017-04-09T06:47:03.840Z,101711.09
2017-04-09T06:48:01.679Z,101714.52
2017-04-09T06:48:59.642Z,101713.29
2017-04-09T06:49:57.458Z,101710.81
2017-04-09T06:50:55.491Z,101716.41
2017-04-09T06:51:53.408Z,101713.82
2017-04-09T06:52:51.316Z,101718.63
2017-04-09T06:53:49.159Z,101717.18
2017-04-09T06:54:46.957Z,101717.53
2017-04-09T06:55:44.913Z,101721.97
2017-04-09T06:56:42.760Z,101717.83
2017-04-09T06:57:40.726Z,101712.69
2017-04-09T06:58:38.553Z,101722.24
2017-04-09T06:59:36.524Z,101718.14
2017-04-09T07:00:34.331Z,101723.23
2017-04-09T07:01:32.144Z,101725.47
2017-04-09T07:02:30.411Z,101722.84
2017-04-09T07:03:28.261Z,101723.70
2017-04-09T07:04:26.073Z,101730.41
2017-04-09T07:05:27.330Z,101727.56
2017-04-09T07:06:25.221Z,101723.70
2017-04-09T07:07:23.146Z,101728.20
2017-04-09T07:08:21.033Z,101724.44
2017-04-09T07:09:18.885Z,101723.47
2017-04-09T07:10:16.824Z,101730.14
2017-04-09T07:11:14.667Z,101728.79
2017-04-09T07:12:12.493Z,101729.27
2017-04-09T07:13:10.471Z,101728.87
2017-04-09T07:14:08.305Z,101723.92
2017-04-09T07:15:06.252Z,101725.55
2017-04-09T07:16:04.125Z,101725.41
2017-04-09T07:17:02.104Z,101723.94
2017-04-09T07:17:59.968Z,101721.06
2017-04-09T07:18:57.793Z,101723.08
2017-04-09T07:19:55.692Z,101724.80
2017-04-09T07:20:54.412Z,101717.81
2017-04-09T07:21:52.244Z,101716.89
2017-04-09T07:22:50.233Z,101713.50
2017-04-09T07:23:48.072Z,101715.86
2017-04-09T07:24:45.872Z,101710.12
2017-04-09T07:25:43.683Z,101715.50
2017-04-09T07:26:41.669Z,101718.13
2017-04-09T07:27:39.470Z,101716.20
2017-04-09T07:28:37.719Z,101721.70
2017-04-09T07:29:35.631Z,101714.05
2017-04-09T07:30:33.473Z,101711.66
2017-04-09T07:31:31.411Z,101720.45
2017-04-09T07:32:29.236Z,101712.93
2017-04-09T07:33:27.059Z,101719.83
2017-04-09T07:34:24.972Z,101719.97
2017-04-09T07:35:22.853Z,101715.63
2017-04-09T07:36:20.723Z,101710.56
2017-04-09T07:37:18.554Z,101712.20
2017-04-09T07:38:16.367Z,101711.48
2017-04-09T07:39:14.215Z,101716.46
2017-04-09T07:40:12.072Z,101716.27
2017-04-09T07:41:09.938Z,101713.09
2017-04-09T07:42:07.869Z,101715.22
2017-04-09T07:43:05.690Z,101712.55
2017-04-09T07:44:03.516Z,101714.60
2017-04-09T07:45:01.379Z,101713.48
2017-04-09T07:46:00.163Z,101721.19
2017-04-09T07:46:58.023Z,101716.77
2017-04-09T07:47:55.903Z,101709.61
2017-04-09T07:48:53.750Z,101712.03
2017-04-09T07:49:51.577Z,101718.25
2017-04-09T07:50:49.417Z,101709.44
2017-04-09T07:51:47.378Z,101712.45
2017-04-09T07:52:45.239Z,101716.91
2017-04-09T07:53:43.165Z,101715.88
2017-04-09T07:54:41.031Z,101714.72
2017-04-09T07:55:38.837Z,101711.80
2017-04-09T07:56:36.914Z,101714.25
2017-04-09T07:57:34.760Z,101716.02
2017-04-09T07:58:32.593Z,101714.06
2017-04-09T07:59:30.423Z,101709.41
2017-04-09T08:00:28.486Z,101715.10
2017-04-09T08:01:26.416Z,101713.07
2017-04-09T08:02:24.284Z,101718.97
2017-04-09T08:03:22.231Z,101717.53
2017-04-09T08:04:20.034Z,101715.38
2017-04-09T08:05:17.887Z,101712.52
2017-04-09T08:06:15.716Z,101714.06
2017-04-09T08:07:15.721Z,101715.73
2017-04-09T08:08:14.196Z,101711.34
2017-04-09T08:09:12.228Z,101714.59
2017-04-09T08:10:12.200Z,101707.50
2017-04-09T08:11:10.498Z,101700.02
2017-04-09T08:12:09.173Z,101710.13
2017-04-09T08:13:07.060Z,101704.92
2017-04-09T08:14:04.887Z,101704.55
2017-04-09T08:15:02.867Z,101704.25
2017-04-09T08:16:00.741Z,101701.97
2017-04-09T08:16:58.527Z,101711.39
2017-04-09T08:17:56.375Z,101705.81
2017-04-09T08:18:54.214Z,101705.50
2017-04-09T08:19:52.155Z,101702.19
2017-04-09T08:20:49.992Z,101700.39
2017-04-09T08:21:47.906Z,101695.41
2017-04-09T08:22:45.769Z,101702.77
2017-04-09T08:23:43.714Z,101698.87
2017-04-09T08:24:41.567Z,101702.09
2017-04-09T08:25:39.408Z,101696.75
2017-04-09T08:26:37.337Z,101697.52
2017-04-09T08:27:35.130Z,101699.53
2017-04-09T08:28:33.112Z,101694.69
2017-04-09T08:29:30.916Z,101698.67
2017-04-09T08:30:28.879Z,101693.29
2017-04-09T08:31:26.751Z,101700.48
2017-04-09T08:32:24.601Z,101697.41
2017-04-09T08:33:22.735Z,101695.44
2017-04-09T08:34:20.548Z,101694.39
2017-04-09T08:35:18.391Z,101690.92
2017-04-09T08:36:16.217Z,101692.09
2017-04-09T08:37:14.062Z,101697.05
2017-04-09T08:38:11.976Z,101690.23
2017-04-09T08:39:09.847Z,101693.97
2017-04-09T08:40:07.845Z,101695.47
2017-04-09T08:41:05.757Z,101693.17
2017-04-09T08:42:03.646Z,101689.61
2017-04-09T08:43:01.468Z,101687.86
2017-04-09T08:43:59.312Z,101695.06
2017-04-09T08:44:57.139Z,101691.48
2017-04-09T08:45:55.091Z,101686.95
2017-04-09T08:46:52.931Z,101691.22
2017-04-09T08:47:50.759Z,101692.75
2017-04-09T08:48:48.817Z,101692.98
2017-04-09T08:49:46.668Z,101690.69
2017-04-09T08:50:44.520Z,101695.80
2017-04-09T08:51:42.533Z,101696.30
2017-04-09T08:52:40.387Z,101689.91
2017-04-09T08:53:38.240Z,101693.63
2017-04-09T08:54:36.141Z,101693.93
2017-04-09T08:55:34.028Z,101692.13
2017-04-09T08:56:31.869Z,101688.16
2017-04-09T08:57:29.717Z,101688.60
2017-04-09T08:58:27.520Z,101692.46
2017-04-09T08:59:25.382Z,101695.80
2017-04-09T09:00:23.270Z,101692.80
2017-04-09T09:01:21.134Z,101691.83
2017-04-09T09:02:18.982Z,101696.48
2017-04-09T09:03:16.849Z,101690.17
2017-04-09T09:04:14.700Z,101695.84
2017-04-09T09:05:12.572Z,101698.36
2017-04-09T09:06:10.460Z,101696.34
2017-04-09T09:07:08.313Z,101697.96
2017-04-09T09:08:06.123Z,101692.42
2017-04-09T09:09:06.363Z,101696.50
2017-04-09T09:10:05.827Z,101692.95
2017-04-09T09:11:03.736Z,101690.05
2017-04-09T09:12:02.204Z,101692.51
2017-04-09T09:13:00.636Z,101692.48
2017-04-09T09:14:01.139Z,101690.73
2017-04-09T09:14:59.407Z,101689.47
2017-04-09T09:16:00.389Z,101689.46
2017-04-09T09:16:59.882Z,101695.56
2017-04-09T09:17:59.453Z,101691.70
2017-04-09T09:19:04.721Z,101688.23
2017-04-09T09:20:09.532Z,101686.47
2017-04-09T09:21:08.643Z,101685.81
2017-04-09T09:22:06.510Z,101687.64
2017-04-09T09:23:04.691Z,101687.77
2017-04-09T09:24:02.721Z,101679.44
2017-04-09T09:25:00.578Z,101684.89
2017-04-09T09:25:58.430Z,101690.44
2017-04-09T09:26:56.257Z,101692.91
2017-04-09T09:27:54.099Z,101689.31
2017-04-09T09:28:51.944Z,101690.09
2017-04-09T09:29:49.781Z,101682.59
2017-04-09T09:30:47.600Z,101682.45
2017-04-09T09:31:45.532Z,101685.05
2017-04-09T09:32:43.364Z,101685.91
2017-04-09T09:33:41.264Z,101686.08
2017-04-09T09:34:39.551Z,101676.75
2017-04-09T09:35:37.841Z,101682.69
2017-04-09T09:36:35.676Z,101675.93
2017-04-09T09:37:33.504Z,101674.95
2017-04-09T09:38:31.361Z,101673.41
2017-04-09T09:39:29.221Z,101673.39
2017-04-09T09:40:27.048Z,101677.25
2017-04-09T09:41:24.980Z,101675.70
2017-04-09T09:42:22.835Z,101672.66
2017-04-09T09:43:20.809Z,101668.99
2017-04-09T09:44:18.620Z,101667.22
2017-04-09T09:45:16.532Z,101667.55
2017-04-09T09:46:14.411Z,101668.16
2017-04-09T09:47:12.656Z,101667.25
2017-04-09T09:48:10.456Z,101669.05
2017-04-09T09:49:08.277Z,101666.62
2017-04-09T09:50:06.257Z,101664.41
2017-04-09T09:51:04.103Z,101663.38
2017-04-09T09:52:01.962Z,101661.36
2017-04-09T09:52:59.804Z,101665.72
2017-04-09T09:53:57.649Z,101660.94
2017-04-09T09:54:55.470Z,101659.84
2017-04-09T09:55:53.315Z,101657.04
2017-04-09T09:56:51.209Z,101661.51
2017-04-09T09:57:48.987Z,101665.48
2017-04-09T09:58:47.029Z,101660.86
2017-04-09T09:59:44.860Z,101659.44
2017-04-09T10:00:42.808Z,101655.74
2017-04-09T10:01:41.428Z,101654.41
2017-04-09T10:02:39.268Z,101661.83
2017-04-09T10:03:37.200Z,101654.95
2017-04-09T10:04:34.998Z,101653.12
2017-04-09T10:05:32.969Z,101651.53
2017-04-09T10:06:30.868Z,101653.35
2017-04-09T10:07:28.824Z,101646.19
2017-04-09T10:08:26.673Z,101647.82
2017-04-09T10:09:24.748Z,101648.04
2017-04-09T10:10:22.597Z,101651.22
2017-04-09T10:11:20.453Z,101647.02
2017-04-09T10:12:18.268Z,101651.10
2017-04-09T10:13:16.036Z,101652.27
2017-04-09T10:14:13.832Z,101642.22
2017-04-09T10:15:11.681Z,101645.31
2017-04-09T10:16:09.533Z,101649.30
2017-04-09T10:17:07.340Z,101644.79
2017-04-09T10:18:05.174Z,101642.03
2017-04-09T10:19:02.960Z,101637.22
2017-04-09T10:20:00.791Z,101637.70
2017-04-09T10:20:58.603Z,101641.39
2017-04-09T10:21:56.411Z,101645.87
2017-04-09T10:22:54.320Z,101645.84
2017-04-09T10:23:52.168Z,101643.97
2017-04-09T10:24:50.028Z,101642.95
2017-04-09T10:25:47.971Z,101639.57
2017-04-09T10:26:45.801Z,101636.56
2017-04-09T10:27:43.716Z,101643.69
2017-04-09T10:28:41.553Z,101640.89
2017-04-09T10:29:39.515Z,101632.89
2017-04-09T10:30:37.325Z,101635.32
2017-04-09T10:31:35.160Z,101642.27
2017-04-09T10:32:33.514Z,101634.44
2017-04-09T10:33:31.391Z,101633.09
2017-04-09T10:34:29.188Z,101635.14
2017-04-09T10:35:27.048Z,101635.58
2017-04-09T10:36:24.873Z,101633.80
2017-04-09T10:37:22.675Z,101631.32
2017-04-09T10:38:20.465Z,101628.88
2017-04-09T10:39:18.312Z,101629.59
2017-04-09T10:40:16.172Z,101634.75
2017-04-09T10:41:14.071Z,101624.53
2017-04-09T10:42:11.952Z,101621.36
2017-04-09T10:43:09.869Z,101622.63
2017-04-09T10:44:07.716Z,101619.23
2017-04-09T10:45:05.618Z,101616.25
2017-04-09T10:46:03.499Z,101620.87
2017-04-09T10:47:01.317Z,101618.78
2017-04-09T10:47:59.356Z,101615.35
2017-04-09T10:48:57.145Z,101621.72
2017-04-09T10:49:55.195Z,101617.23
2017-04-09T10:50:54.393Z,101612.45
2017-04-09T10:51:52.231Z,101618.69
2017-04-09T10:52:50.234Z,101615.53
2017-04-09T10:53:48.086Z,101613.92
2017-04-09T10:54:45.847Z,101612.67
2017-04-09T10:55:43.876Z,101616.61
2017-04-09T10:56:41.736Z,101620.43
2017-04-09T10:57:39.575Z,101615.47
2017-04-09T10:58:37.387Z,101621.45
2017-04-09T10:59:35.222Z,101616.39
2017-04-09T11:00:33.265Z,101614.62
2017-04-09T11:01:31.107Z,101611.23
2017-04-09T11:02:29.047Z,101611.19
2017-04-09T11:03:26.890Z,101612.16